Time,TemperatureF,DewpointF,PressureIn,WindDirection,WindDirectionDegrees,WindSpeedMPH,WindSpeedGustMPH,Humidity,HourlyPrecipIn,Conditions,Clouds,dailyrainin,SolarRadiationWatts/m^2,SoftwareType,DateUTC
2013-02-28 00:04:00,35.9,7.0,30.11,ENE,74,0.0,2.0,30,0.00,,,0.00,0,weatherlink.com 1.10,2013-02-28 07:04:00,
2013-02-28 00:19:00,34.4,7.0,30.12,ENE,75,0.0,3.0,32,0.00,,,0.00,0,weatherlink.com 1.10,2013-02-28 07:19:00,
2013-02-28 00:34:00,35.6,8.0,30.13,NW,310,5.0,7.0,31,0.00,,,0.00,0,weatherlink.com 1.10,2013-02-28 07:34:00,
2013-02-28 00:49:00,37.6,7.0,30.13,WNW,294,2.0,10.0,28,0.00,,,0.00,0,weatherlink.com 1.10,2013-02-28 07:49:00,
2013-02-28 01:04:00,37.9,7.0,30.12,NW,308,1.0,4.0,27,0.00,,,0.00,0,weatherlink.com 1.10,2013-02-28 08:04:00,
2013-02-28 01:19:00,37.3,6.0,30.12,WNW,295,2.0,5.0,27,0.00,,,0.00,0,weatherlink.com 1.10,2013-02-28 08:19:00,
2013-02-28 01:34:00,35.6,6.0,30.12,WNW,296,0.0,2.0,29,0.00,,,0.00,0,weatherlink.com 1.10,2013-02-28 08:34:00,
2013-02-28 01:49:00,34.1,7.0,30.12,ENE,61,0.0,2.0,32,0.00,,,0.00,0,weatherlink.com 1.10,2013-02-28 08:49:00,
2013-02-28 02:04:00,32.3,7.0,30.11,ENE,77,1.0,4.0,35,0.00,,,0.00,0,weatherlink.com 1.10,2013-02-28 09:04:00,
2013-02-28 02:19:00,30.7,8.0,30.12,ENE,78,0.0,2.0,38,0.00,,,0.00,0,weatherlink.com 1.10,2013-02-28 09:19:00,
2013-02-28 02:34:00,29.9,8.0,30.11,ENE,70,2.0,4.0,40,0.00,,,0.00,0,weatherlink.com 1.10,2013-02-28 09:34:00,
2013-02-28 02:49:00,29.4,8.0,30.11,East,79,1.0,3.0,41,0.00,,,0.00,0,weatherlink.com 1.10,2013-02-28 09:49:00,
2013-02-28 03:04:00,28.6,8.0,30.11,East,79,0.0,2.0,42,0.00,,,0.00,0,weatherlink.com 1.10,2013-02-28 10:04:00,
2013-02-28 03:19:00,28.3,8.0,30.10,East,79,0.0,2.0,42,0.00,,,0.00,0,weatherlink.com 1.10,2013-02-28 10:19:00,
2013-02-28 03:35:00,27.4,7.0,30.11,East,79,0.0,1.0,42,0.00,,,0.00,0,weatherlink.com 1.10,2013-02-28 10:35:00,
2013-02-28 03:49:00,26.1,8.0,30.10,East,79,1.0,2.0,47,0.00,,,0.00,0,weatherlink.com 1.10,2013-02-28 10:49:00,
2013-02-28 04:04:00,26.9,9.0,30.10,East,90,0.0,3.0,47,0.00,,,0.00,0,weatherlink.com 1.10,2013-02-28 11:04:00,
2013-02-28 04:19:00,27.3,9.0,30.10,East,89,2.0,4.0,46,0.00,,,0.00,0,weatherlink.com 1.10,2013-02-28 11:19:00,
2013-02-28 04:36:00,27.1,8.0,30.11,East,89,0.0,1.0,45,0.00,,,0.00,0,weatherlink.com 1.10,2013-02-28 11:36:00,
2013-02-28 04:50:00,25.8,8.0,30.11,East,89,0.0,2.0,47,0.00,,,0.00,0,weatherlink.com 1.10,2013-02-28 11:50:00,
2013-02-28 05:05:00,26.1,8.0,30.11,East,89,2.0,2.0,47,0.00,,,0.00,0,weatherlink.com 1.10,2013-02-28 12:05:00,
2013-02-28 05:20:00,25.8,8.0,30.12,East,88,2.0,3.0,47,0.00,,,0.00,0,weatherlink.com 1.10,2013-02-28 12:20:00,
2013-02-28 05:35:00,26.3,8.0,30.13,East,84,3.0,4.0,47,0.00,,,0.00,0,weatherlink.com 1.10,2013-02-28 12:35:00,
2013-02-28 05:50:00,26.2,8.0,30.14,East,84,0.0,3.0,47,0.00,,,0.00,0,weatherlink.com 1.10,2013-02-28 12:50:00,
2013-02-28 06:05:00,25.6,8.0,30.14,East,91,2.0,3.0,48,0.00,,,0.00,0,weatherlink.com 1.10,2013-02-28 13:05:00,
2013-02-28 06:20:00,26.8,7.0,30.15,East,91,0.0,2.0,44,0.00,,,0.00,0,weatherlink.com 1.10,2013-02-28 13:20:00,
2013-02-28 06:35:00,26.0,8.0,30.15,East,91,0.0,2.0,46,0.00,,,0.00,0,weatherlink.com 1.10,2013-02-28 13:35:00,
2013-02-28 06:50:00,24.5,8.0,30.16,East,91,0.0,2.0,49,0.00,,,0.00,5,weatherlink.com 1.10,2013-02-28 13:50:00,
2013-02-28 07:05:00,25.1,8.0,30.16,East,91,1.0,2.0,49,0.00,,,0.00,21,weatherlink.com 1.10,2013-02-28 14:05:00,
2013-02-28 07:20:00,25.9,9.0,30.18,East,93,0.0,2.0,49,0.00,,,0.00,51,weatherlink.com 1.10,2013-02-28 14:20:00,
2013-02-28 07:35:00,28.1,10.0,30.18,East,93,0.0,1.0,46,0.00,,,0.00,100,weatherlink.com 1.10,2013-02-28 14:35:00,
2013-02-28 07:50:00,32.1,10.0,30.19,East,93,0.0,1.0,39,0.00,,,0.00,169,weatherlink.com 1.10,2013-02-28 14:50:00,
2013-02-28 08:05:00,33.9,10.0,30.20,East,93,0.0,0.0,37,0.00,,,0.00,237,weatherlink.com 1.10,2013-02-28 15:05:00,
2013-02-28 08:21:00,36.4,9.0,30.20,NW,304,2.0,3.0,32,0.00,,,0.00,301,weatherlink.com 1.10,2013-02-28 15:21:00,
2013-02-28 08:35:00,37.9,9.0,30.20,WNW,287,2.0,4.0,30,0.00,,,0.00,353,weatherlink.com 1.10,2013-02-28 15:35:00,
2013-02-28 08:50:00,39.6,10.0,30.21,West,274,3.0,6.0,29,0.00,,,0.00,411,weatherlink.com 1.10,2013-02-28 15:50:00,
2013-02-28 09:06:00,40.9,10.0,30.20,West,281,2.0,6.0,28,0.00,,,0.00,466,weatherlink.com 1.10,2013-02-28 16:06:00,
2013-02-28 09:21:00,42.5,11.0,30.20,WNW,282,1.0,4.0,27,0.00,,,0.00,513,weatherlink.com 1.10,2013-02-28 16:21:00,
2013-02-28 09:36:00,44.5,10.0,30.21,SW,221,0.0,4.0,24,0.00,,,0.00,564,weatherlink.com 1.10,2013-02-28 16:36:00,
2013-02-28 09:51:00,47.0,10.0,30.21,West,268,4.0,8.0,22,0.00,,,0.00,610,weatherlink.com 1.10,2013-02-28 16:51:00,
2013-02-28 10:06:00,48.6,10.0,30.21,WNW,290,6.0,7.0,21,0.00,,,0.00,649,weatherlink.com 1.10,2013-02-28 17:06:00,
2013-02-28 10:21:00,49.6,9.0,30.21,South,169,1.0,6.0,19,0.00,,,0.00,689,weatherlink.com 1.10,2013-02-28 17:21:00,
2013-02-28 10:36:00,50.8,8.0,30.21,SE,125,5.0,7.0,18,0.00,,,0.00,729,weatherlink.com 1.10,2013-02-28 17:36:00,
2013-02-28 10:51:00,52.1,8.0,30.21,SSE,148,3.0,5.0,17,0.00,,,0.00,759,weatherlink.com 1.10,2013-02-28 17:51:00,
2013-02-28 11:06:00,52.4,6.0,30.21,SW,236,4.0,7.0,15,0.00,,,0.00,788,weatherlink.com 1.10,2013-02-28 18:06:00,
2013-02-28 11:22:00,52.8,5.0,30.20,ESE,109,4.0,7.0,14,0.00,,,0.00,814,weatherlink.com 1.10,2013-02-28 18:22:00,
2013-02-28 11:36:00,54.9,1.0,30.20,NW,325,4.0,11.0,11,0.00,,,0.00,831,weatherlink.com 1.10,2013-02-28 18:36:00,
2013-02-28 11:51:00,54.8,1.0,30.20,NNW,342,4.0,6.0,11,0.00,,,0.00,844,weatherlink.com 1.10,2013-02-28 18:51:00,
2013-02-28 12:06:00,55.2,-1.0,30.20,North,2,2.0,7.0,10,0.00,,,0.00,858,weatherlink.com 1.10,2013-02-28 19:06:00,
2013-02-28 12:21:00,56.7,-4.0,30.19,NNW,338,10.0,12.0,8,0.00,,,0.00,867,weatherlink.com 1.10,2013-02-28 19:21:00,
2013-02-28 12:37:00,57.2,-7.0,30.18,NNE,16,7.0,12.0,7,0.00,,,0.00,870,weatherlink.com 1.10,2013-02-28 19:37:00,
2013-02-28 12:51:00,57.6,-7.0,30.18,North,360,1.0,9.0,7,0.00,,,0.00,865,weatherlink.com 1.10,2013-02-28 19:51:00,
2013-02-28 13:07:00,58.0,-3.0,30.17,North,359,5.0,8.0,8,0.00,,,0.00,858,weatherlink.com 1.10,2013-02-28 20:07:00,
2013-02-28 13:22:00,58.3,-6.0,30.16,NW,311,4.0,11.0,7,0.00,,,0.00,847,weatherlink.com 1.10,2013-02-28 20:22:00,
2013-02-28 13:37:00,56.9,-4.0,30.16,North,6,1.0,13.0,8,0.00,,,0.00,828,weatherlink.com 1.10,2013-02-28 20:37:00,
2013-02-28 13:52:00,59.2,-3.0,30.15,ENE,60,7.0,10.0,8,0.00,,,0.00,814,weatherlink.com 1.10,2013-02-28 20:52:00,
2013-02-28 14:07:00,58.5,-1.0,30.15,East,101,6.0,8.0,9,0.00,,,0.00,789,weatherlink.com 1.10,2013-02-28 21:07:00,
2013-02-28 14:22:00,59.7,-2.0,30.15,WNW,301,7.0,10.0,8,0.00,,,0.00,759,weatherlink.com 1.10,2013-02-28 21:22:00,
2013-02-28 14:37:00,59.3,0.0,30.15,North,4,6.0,11.0,9,0.00,,,0.00,728,weatherlink.com 1.10,2013-02-28 21:37:00,
2013-02-28 14:52:00,60.0,1.0,30.15,NNE,21,2.0,8.0,9,0.00,,,0.00,691,weatherlink.com 1.10,2013-02-28 21:52:00,
2013-02-28 15:07:00,60.7,-1.0,30.15,North,1,2.0,9.0,8,0.00,,,0.00,652,weatherlink.com 1.10,2013-02-28 22:07:00,
2013-02-28 15:22:00,60.5,-4.0,30.15,NNW,342,9.0,14.0,7,0.00,,,0.00,612,weatherlink.com 1.10,2013-02-28 22:22:00,
2013-02-28 15:37:00,60.2,-5.0,30.15,NNE,27,5.0,8.0,7,0.00,,,0.00,566,weatherlink.com 1.10,2013-02-28 22:37:00,
2013-02-28 15:52:00,60.1,-8.0,30.15,NNW,333,5.0,8.0,6,0.00,,,0.00,517,weatherlink.com 1.10,2013-02-28 22:52:00,
2013-02-28 16:07:00,60.4,-11.0,30.14,NE,39,8.0,11.0,5,0.00,,,0.00,469,weatherlink.com 1.10,2013-02-28 23:07:00,
2013-02-28 16:22:00,60.3,-11.0,30.14,ENE,61,5.0,9.0,5,0.00,,,0.00,413,weatherlink.com 1.10,2013-02-28 23:22:00,
2013-02-28 16:38:00,59.5,-8.0,30.14,North,4,2.0,8.0,6,0.00,,,0.00,355,weatherlink.com 1.10,2013-02-28 23:38:00,
2013-02-28 16:53:00,59.6,-12.0,30.15,NNE,32,1.0,9.0,5,0.00,,,0.00,297,weatherlink.com 1.10,2013-02-28 23:53:00,
2013-02-28 17:08:00,58.8,-12.0,30.15,NNE,30,3.0,8.0,5,0.00,,,0.00,230,weatherlink.com 1.10,2013-03-01 00:08:00,
2013-02-28 17:23:00,58.5,-9.0,30.16,NNE,13,5.0,9.0,6,0.00,,,0.00,160,weatherlink.com 1.10,2013-03-01 00:23:00,
2013-02-28 17:38:00,57.6,-13.0,30.16,NE,56,1.0,6.0,5,0.00,,,0.00,91,weatherlink.com 1.10,2013-03-01 00:38:00,
2013-02-28 17:53:00,56.4,-11.0,30.15,ENE,68,0.0,4.0,6,0.00,,,0.00,40,weatherlink.com 1.10,2013-03-01 00:53:00,
2013-02-28 18:08:00,55.2,-8.0,30.16,NNW,334,0.0,5.0,7,0.00,,,0.00,14,weatherlink.com 1.10,2013-03-01 01:08:00,
2013-02-28 18:23:00,53.5,-7.0,30.16,North,8,0.0,2.0,8,0.00,,,0.00,0,weatherlink.com 1.10,2013-03-01 01:23:00,
2013-02-28 18:38:00,50.6,-4.0,30.17,NE,47,1.0,2.0,10,0.00,,,0.00,0,weatherlink.com 1.10,2013-03-01 01:38:00,
2013-02-28 18:53:00,47.3,-3.0,30.18,East,91,2.0,3.0,12,0.00,,,0.00,0,weatherlink.com 1.10,2013-03-01 01:53:00,
2013-02-28 19:08:00,45.2,-2.0,30.18,East,87,1.0,4.0,14,0.00,,,0.00,0,weatherlink.com 1.10,2013-03-01 02:08:00,
2013-02-28 19:23:00,43.4,0.0,30.19,East,85,2.0,4.0,16,0.00,,,0.00,0,weatherlink.com 1.10,2013-03-01 02:23:00,
2013-02-28 19:38:00,41.3,-1.0,30.20,ENE,74,2.0,5.0,17,0.00,,,0.00,0,weatherlink.com 1.10,2013-03-01 02:38:00,
2013-02-28 19:53:00,41.5,-1.0,30.21,ENE,77,2.0,4.0,17,0.00,,,0.00,0,weatherlink.com 1.10,2013-03-01 02:53:00,
2013-02-28 20:09:00,41.1,-2.0,30.21,East,86,2.0,3.0,16,0.00,,,0.00,0,weatherlink.com 1.10,2013-03-01 03:09:00,
2013-02-28 20:25:00,40.0,-1.0,30.21,East,89,2.0,4.0,18,0.00,,,0.00,0,weatherlink.com 1.10,2013-03-01 03:25:00,
2013-02-28 20:39:00,39.1,0.0,30.21,East,88,0.0,4.0,19,0.00,,,0.00,0,weatherlink.com 1.10,2013-03-01 03:39:00,
2013-02-28 20:56:00,37.2,0.0,30.22,East,84,1.0,2.0,21,0.00,,,0.00,0,weatherlink.com 1.10,2013-03-01 03:56:00,
2013-02-28 21:09:00,36.2,2.0,30.23,East,85,1.0,3.0,23,0.00,,,0.00,0,weatherlink.com 1.10,2013-03-01 04:09:00,
2013-02-28 21:24:00,35.7,1.0,30.23,East,82,1.0,3.0,23,0.00,,,0.00,0,weatherlink.com 1.10,2013-03-01 04:24:00,
2013-02-28 21:39:00,37.0,2.0,30.24,ENE,74,0.0,4.0,23,0.00,,,0.00,0,weatherlink.com 1.10,2013-03-01 04:39:00,
2013-02-28 21:54:00,38.4,0.0,30.24,ENE,68,0.0,3.0,20,0.00,,,0.00,0,weatherlink.com 1.10,2013-03-01 04:54:00,
2013-02-28 22:09:00,39.4,1.0,30.24,ENE,68,0.0,2.0,20,0.00,,,0.00,0,weatherlink.com 1.10,2013-03-01 05:09:00,
2013-02-28 22:25:00,36.7,3.0,30.25,ENE,68,0.0,2.0,24,0.00,,,0.00,0,weatherlink.com 1.10,2013-03-01 05:25:00,
2013-02-28 22:40:00,35.3,3.0,30.27,ENE,69,0.0,3.0,26,0.00,,,0.00,0,weatherlink.com 1.10,2013-03-01 05:40:00,
2013-02-28 22:55:00,35.2,3.0,30.27,East,83,0.0,4.0,26,0.00,,,0.00,0,weatherlink.com 1.10,2013-03-01 05:55:00,
2013-02-28 23:10:00,35.6,4.0,30.27,East,83,0.0,2.0,26,0.00,,,0.00,0,weatherlink.com 1.10,2013-03-01 06:10:00,
2013-02-28 23:25:00,36.2,3.0,30.27,East,82,0.0,1.0,25,0.00,,,0.00,0,weatherlink.com 1.10,2013-03-01 06:25:00,
2013-02-28 23:40:00,37.2,3.0,30.27,ENE,68,1.0,2.0,24,0.00,,,0.00,0,weatherlink.com 1.10,2013-03-01 06:40:00,
2013-02-28 23:55:00,38.0,4.0,30.27,ENE,72,0.0,3.0,24,0.00,,,0.00,0,weatherlink.com 1.10,2013-03-01 06:55:00,